Terminal Aerodrome Forecast
Issued by NWS

Home | Current Version | Previous Version | Text Only | Print | Product List | Glossary On
Versions: 1 2 3 4 5 6 7 8 9 10 11 12 13 14 15 16 17
000
FTUS41 KBOX 242147 AAA
TAFBED
TAF AMD
KBED 242147Z 2422/2518 35008KT 3SM -RA BR OVC006
     FM250500 32008KT 3SM -RA BR OVC010
     FM250800 32008KT 4SM BR VCSH OVC025
     FM251100 31007KT P6SM BKN040=

USA.gov is the U.S. government's official web portal to all federal, state and local government web resources and services.